createdAt,value
2018-01-23T00:00:09.345Z,38.00
2018-01-23T00:01:09.333Z,37.20
2018-01-23T00:02:09.331Z,43.30
2018-01-23T00:03:09.352Z,35.60
2018-01-23T00:04:09.304Z,36.20
2018-01-23T00:05:09.295Z,38.40
2018-01-23T00:06:09.280Z,38.60
2018-01-23T00:07:09.275Z,38.40
2018-01-23T00:08:09.260Z,36.30
2018-01-23T00:09:09.252Z,41.00
2018-01-23T00:10:09.241Z,36.70
2018-01-23T00:11:09.232Z,34.10
2018-01-23T00:12:09.218Z,38.20
2018-01-23T00:13:09.208Z,37.90
2018-01-23T00:14:09.196Z,36.20
2018-01-23T00:15:09.187Z,42.40
2018-01-23T00:16:09.179Z,44.50
2018-01-23T00:17:09.165Z,33.00
2018-01-23T00:18:09.155Z,37.00
2018-01-23T00:19:09.220Z,38.70
2018-01-23T00:20:09.211Z,33.10
2018-01-23T00:21:13.198Z,37.10
2018-01-23T00:22:11.951Z,40.90
2018-01-23T00:23:11.895Z,35.50
2018-01-23T00:24:09.089Z,44.50
2018-01-23T00:25:09.086Z,35.00
2018-01-23T00:26:09.088Z,39.90
2018-01-23T00:27:09.060Z,41.20
2018-01-23T00:28:09.052Z,36.80
2018-01-23T00:29:09.040Z,33.50
2018-01-23T00:30:09.030Z,45.80
2018-01-23T00:31:09.022Z,34.50
2018-01-23T00:32:09.008Z,34.60
2018-01-23T00:33:09.000Z,40.60
2018-01-23T00:34:08.987Z,35.50
2018-01-23T00:35:08.979Z,34.80
2018-01-23T00:36:08.964Z,31.20
2018-01-23T00:37:08.955Z,38.70
2018-01-23T00:38:08.946Z,37.80
2018-01-23T00:39:08.935Z,40.60
2018-01-23T00:40:08.925Z,32.60
2018-01-23T00:41:08.917Z,36.40
2018-01-23T00:42:08.901Z,34.30
2018-01-23T00:43:08.892Z,34.20
2018-01-23T00:44:08.883Z,35.90
2018-01-23T00:45:08.874Z,35.90
2018-01-23T00:46:08.863Z,40.20
2018-01-23T00:47:08.852Z,32.10
2018-01-23T00:48:08.840Z,31.70
2018-01-23T00:49:08.853Z,35.60
2018-01-23T00:50:08.817Z,37.90
2018-01-23T00:51:08.814Z,31.70
2018-01-23T00:52:08.799Z,41.20
2018-01-23T00:53:08.792Z,32.20
2018-01-23T00:54:08.777Z,36.90
2018-01-23T00:55:08.770Z,32.50
2018-01-23T00:56:08.757Z,34.70
2018-01-23T00:57:08.750Z,28.50
2018-01-23T00:58:08.736Z,34.40
2018-01-23T00:59:08.727Z,31.50
2018-01-23T01:00:08.719Z,33.50
2018-01-23T01:01:08.710Z,30.70
2018-01-23T01:02:08.700Z,35.80
2018-01-23T01:03:08.688Z,32.50
2018-01-23T01:04:08.684Z,31.50
2018-01-23T01:05:08.668Z,38.00
2018-01-23T01:06:08.693Z,31.50
2018-01-23T01:07:08.645Z,39.20
2018-01-23T01:08:08.639Z,31.30
2018-01-23T01:09:08.626Z,35.40
2018-01-23T01:10:08.617Z,33.70
2018-01-23T01:11:08.608Z,33.20
2018-01-23T01:12:08.610Z,33.30
2018-01-23T01:13:08.585Z,32.90
2018-01-23T01:14:08.580Z,36.60
2018-01-23T01:15:08.564Z,36.50
2018-01-23T01:16:08.554Z,34.40
2018-01-23T01:17:08.545Z,32.20
2018-01-23T01:18:08.528Z,30.60
2018-01-23T01:19:08.523Z,33.40
2018-01-23T01:20:08.515Z,35.50
2018-01-23T01:21:08.503Z,32.00
2018-01-23T01:22:08.488Z,33.00
2018-01-23T01:23:08.873Z,30.50
2018-01-23T01:24:09.182Z,26.60
2018-01-23T01:25:08.476Z,34.00
2018-01-23T01:26:08.605Z,34.00
2018-01-23T01:27:08.440Z,32.40
2018-01-23T01:28:08.471Z,38.20
2018-01-23T01:29:08.498Z,41.50
2018-01-23T01:30:08.629Z,31.40
2018-01-23T01:31:08.484Z,30.90
2018-01-23T01:32:08.415Z,34.40
2018-01-23T01:33:08.412Z,29.90
2018-01-23T01:34:08.369Z,32.70
2018-01-23T01:35:08.357Z,35.70
2018-01-23T01:36:08.350Z,32.20
2018-01-23T01:37:08.344Z,37.90
2018-01-23T01:38:08.326Z,31.70
2018-01-23T01:39:08.318Z,32.50
2018-01-23T01:40:08.302Z,35.20
2018-01-23T01:41:08.299Z,30.60
2018-01-23T01:42:08.293Z,37.80
2018-01-23T01:43:08.286Z,32.00
2018-01-23T01:44:08.266Z,30.70
2018-01-23T01:45:08.261Z,33.40
2018-01-23T01:46:08.251Z,35.60
2018-01-23T01:47:08.238Z,30.70
2018-01-23T01:48:08.252Z,33.40
2018-01-23T01:49:08.231Z,32.90
2018-01-23T01:50:08.204Z,38.30
2018-01-23T01:51:08.201Z,37.30
2018-01-23T01:52:08.190Z,35.10
2018-01-23T01:53:08.175Z,36.70
2018-01-23T01:54:08.158Z,32.10
2018-01-23T01:55:08.160Z,37.80
2018-01-23T01:56:08.146Z,38.40
2018-01-23T01:57:08.129Z,33.70
2018-01-23T01:58:08.122Z,40.90
2018-01-23T01:59:08.121Z,41.40
2018-01-23T02:00:08.104Z,34.00
2018-01-23T02:01:08.095Z,38.60
2018-01-23T02:02:08.087Z,34.90
2018-01-23T02:03:08.071Z,42.80
2018-01-23T02:04:08.063Z,37.00
2018-01-23T02:05:08.048Z,34.60
2018-01-23T02:06:08.040Z,34.20
2018-01-23T02:07:08.032Z,40.20
2018-01-23T02:08:08.025Z,30.70
2018-01-23T02:09:08.009Z,36.10
2018-01-23T02:10:08.000Z,28.10
2018-01-23T02:11:07.986Z,32.50
2018-01-23T02:12:07.974Z,33.30
2018-01-23T02:13:07.972Z,35.80
2018-01-23T02:14:07.973Z,34.90
2018-01-23T02:15:07.966Z,37.60
2018-01-23T02:16:07.939Z,29.30
2018-01-23T02:17:07.926Z,33.70
2018-01-23T02:18:07.912Z,32.10
2018-01-23T02:19:07.901Z,33.90
2018-01-23T02:20:07.913Z,35.00
2018-01-23T02:21:07.886Z,28.80
2018-01-23T02:22:07.879Z,37.40
2018-01-23T02:23:07.858Z,34.20
2018-01-23T02:24:07.849Z,40.40
2018-01-23T02:25:07.842Z,36.50
2018-01-23T02:26:07.839Z,30.90
2018-01-23T02:27:07.850Z,34.10
2018-01-23T02:28:07.819Z,39.50
2018-01-23T02:29:07.799Z,39.70
2018-01-23T02:30:07.791Z,38.50
2018-01-23T02:31:07.790Z,33.70
2018-01-23T02:32:07.775Z,33.10
2018-01-23T02:33:07.758Z,38.70
2018-01-23T02:34:07.761Z,36.70
2018-01-23T02:35:07.738Z,37.30
2018-01-23T02:36:07.739Z,31.60
2018-01-23T02:37:07.749Z,35.60
2018-01-23T02:38:07.705Z,31.10
2018-01-23T02:39:07.698Z,34.30
2018-01-23T02:40:07.686Z,33.50
2018-01-23T02:41:07.677Z,34.80
2018-01-23T02:42:07.671Z,37.40
2018-01-23T02:43:07.655Z,36.70
2018-01-23T02:44:07.644Z,33.50
2018-01-23T02:45:07.636Z,41.30
2018-01-23T02:46:07.630Z,32.30
2018-01-23T02:47:07.612Z,35.50
2018-01-23T02:48:07.602Z,39.90
2018-01-23T02:49:07.593Z,33.10
2018-01-23T02:50:07.585Z,34.70
2018-01-23T02:51:07.573Z,32.80
2018-01-23T02:52:07.564Z,39.30
2018-01-23T02:53:07.553Z,37.70
2018-01-23T02:54:07.539Z,35.90
2018-01-23T02:55:07.531Z,39.00
2018-01-23T02:56:07.522Z,31.90
2018-01-23T02:57:07.511Z,36.40
2018-01-23T02:58:07.502Z,39.70
2018-01-23T02:59:07.498Z,38.90
2018-01-23T03:00:07.475Z,31.70
2018-01-23T03:01:07.469Z,34.70
2018-01-23T03:02:07.460Z,42.20
2018-01-23T03:03:07.450Z,33.80
2018-01-23T03:04:07.445Z,34.80
2018-01-23T03:05:07.427Z,32.30
2018-01-23T03:06:07.421Z,34.50
2018-01-23T03:07:07.405Z,39.10
2018-01-23T03:08:07.396Z,35.70
2018-01-23T03:09:07.388Z,38.60
2018-01-23T03:10:07.381Z,36.30
2018-01-23T03:11:07.365Z,34.50
2018-01-23T03:12:07.354Z,35.10
2018-01-23T03:13:07.345Z,40.80
2018-01-23T03:14:07.332Z,37.00
2018-01-23T03:15:07.325Z,33.20
2018-01-23T03:16:07.320Z,35.70
2018-01-23T03:17:07.305Z,35.80
2018-01-23T03:18:07.295Z,35.80
2018-01-23T03:19:07.283Z,35.60
2018-01-23T03:20:07.275Z,40.50
2018-01-23T03:21:07.279Z,38.30
2018-01-23T03:22:07.256Z,38.20
2018-01-23T03:23:07.241Z,37.80
2018-01-23T03:24:07.235Z,36.80
2018-01-23T03:25:07.219Z,36.20
2018-01-23T03:26:07.213Z,38.90
2018-01-23T03:27:07.199Z,39.20
2018-01-23T03:28:07.189Z,37.60
2018-01-23T03:29:07.179Z,33.50
2018-01-23T03:30:07.174Z,34.00
2018-01-23T03:31:07.159Z,30.60
2018-01-23T03:32:07.149Z,35.80
2018-01-23T03:33:07.138Z,31.70
2018-01-23T03:34:07.129Z,35.90
2018-01-23T03:35:07.115Z,33.10
2018-01-23T03:36:07.105Z,41.20
2018-01-23T03:37:07.097Z,33.40
2018-01-23T03:38:07.085Z,42.40
2018-01-23T03:39:07.077Z,30.90
2018-01-23T03:40:07.066Z,32.40
2018-01-23T03:41:07.069Z,33.50
2018-01-23T03:42:07.048Z,35.50
2018-01-23T03:43:07.040Z,33.50
2018-01-23T03:44:07.028Z,34.10
2018-01-23T03:45:07.013Z,36.30
2018-01-23T03:46:07.005Z,31.70
2018-01-23T03:47:06.991Z,30.30
2018-01-23T03:48:06.985Z,29.50
2018-01-23T03:49:06.971Z,32.40
2018-01-23T03:50:06.959Z,30.30
2018-01-23T03:51:06.953Z,34.50
2018-01-23T03:52:06.941Z,34.50
2018-01-23T03:53:06.931Z,35.70
2018-01-23T03:54:06.925Z,35.00
2018-01-23T03:55:06.907Z,31.40
2018-01-23T03:56:06.900Z,31.00
2018-01-23T03:57:06.905Z,32.60
2018-01-23T03:58:06.881Z,32.50
2018-01-23T03:59:06.872Z,38.20
2018-01-23T04:00:06.862Z,33.10
2018-01-23T04:01:06.855Z,35.50
2018-01-23T04:02:06.838Z,30.20
2018-01-23T04:03:06.828Z,31.20
2018-01-23T04:04:06.820Z,30.50
2018-01-23T04:05:06.807Z,38.80
2018-01-23T04:06:06.803Z,33.70
2018-01-23T04:07:06.795Z,33.80
2018-01-23T04:08:06.774Z,28.90
2018-01-23T04:09:06.767Z,34.90
2018-01-23T04:10:06.759Z,32.80
2018-01-23T04:11:06.747Z,32.70
2018-01-23T04:12:06.738Z,30.10
2018-01-23T04:13:06.726Z,29.90
2018-01-23T04:14:06.717Z,31.00
2018-01-23T04:15:06.704Z,34.30
2018-01-23T04:16:06.694Z,30.20
2018-01-23T04:17:06.686Z,29.70
2018-01-23T04:18:06.687Z,35.90
2018-01-23T04:19:06.663Z,35.10
2018-01-23T04:20:06.655Z,36.50
2018-01-23T04:21:06.650Z,36.80
2018-01-23T04:22:06.633Z,34.20
2018-01-23T04:23:06.624Z,33.40
2018-01-23T04:24:06.615Z,33.30
2018-01-23T04:25:06.602Z,26.20
2018-01-23T04:26:06.594Z,31.40
2018-01-23T04:27:06.582Z,38.30
2018-01-23T04:28:06.574Z,35.10
2018-01-23T04:29:06.560Z,38.20
2018-01-23T04:30:06.554Z,28.90
2018-01-23T04:31:06.539Z,32.90
2018-01-23T04:32:06.530Z,31.00
2018-01-23T04:33:06.527Z,33.60
2018-01-23T04:34:06.518Z,31.80
2018-01-23T04:35:06.498Z,31.10
2018-01-23T04:36:06.493Z,30.70
2018-01-23T04:37:06.479Z,33.20
2018-01-23T04:38:06.472Z,32.70
2018-01-23T04:39:06.465Z,34.30
2018-01-23T04:40:06.500Z,32.40
2018-01-23T04:41:06.453Z,37.70
2018-01-23T04:42:06.456Z,29.70
2018-01-23T04:43:06.427Z,35.90
2018-01-23T04:44:06.409Z,35.10
2018-01-23T04:45:06.397Z,34.80
2018-01-23T04:46:06.390Z,36.50
2018-01-23T04:47:13.328Z,32.50
2018-01-23T04:48:06.365Z,28.30
2018-01-23T04:49:06.354Z,40.50
2018-01-23T04:50:06.347Z,33.30
2018-01-23T04:51:06.336Z,31.30
2018-01-23T04:52:06.326Z,35.90
2018-01-23T04:53:06.316Z,34.50
2018-01-23T04:54:06.306Z,36.40
2018-01-23T04:55:06.295Z,33.50
2018-01-23T04:56:06.283Z,33.20
2018-01-23T04:57:06.278Z,34.50
2018-01-23T04:58:06.264Z,40.20
2018-01-23T04:59:06.252Z,35.10
2018-01-23T05:00:06.251Z,35.00
2018-01-23T05:01:06.233Z,35.30
2018-01-23T05:02:06.223Z,34.00
2018-01-23T05:03:06.214Z,34.10
2018-01-23T05:04:06.203Z,36.70
2018-01-23T05:05:06.193Z,34.70
2018-01-23T05:06:06.183Z,32.60
2018-01-23T05:07:06.180Z,35.60
2018-01-23T05:08:06.160Z,39.60
2018-01-23T05:09:06.161Z,37.70
2018-01-23T05:10:06.136Z,40.30
2018-01-23T05:11:06.126Z,37.60
2018-01-23T05:12:06.118Z,34.10
2018-01-23T05:13:06.105Z,33.90
2018-01-23T05:14:06.099Z,41.30
2018-01-23T05:15:06.088Z,33.60
2018-01-23T05:16:06.079Z,34.10
2018-01-23T05:17:06.064Z,35.80
2018-01-23T05:18:06.057Z,39.10
2018-01-23T05:19:06.042Z,36.50
2018-01-23T05:20:06.036Z,33.40
2018-01-23T05:21:06.030Z,32.50
2018-01-23T05:22:06.023Z,32.60
2018-01-23T05:23:05.997Z,36.40
2018-01-23T05:24:05.994Z,37.30
2018-01-23T05:25:05.978Z,40.30
2018-01-23T05:26:05.975Z,36.60
2018-01-23T05:27:05.965Z,40.10
2018-01-23T05:28:05.950Z,39.20
2018-01-23T05:29:05.940Z,44.10
2018-01-23T05:30:05.934Z,39.80
2018-01-23T05:31:05.920Z,46.20
2018-01-23T05:32:05.911Z,39.60
2018-01-23T05:33:05.903Z,39.00
2018-01-23T05:34:05.891Z,43.50
2018-01-23T05:35:05.880Z,37.20
2018-01-23T05:36:05.874Z,39.30
2018-01-23T05:37:05.863Z,40.80
2018-01-23T05:38:05.876Z,43.40
2018-01-23T05:39:05.834Z,43.60
2018-01-23T05:40:05.826Z,42.60
2018-01-23T05:41:05.816Z,39.70
2018-01-23T05:42:05.807Z,45.50
2018-01-23T05:43:05.793Z,45.80
2018-01-23T05:44:05.779Z,53.00
2018-01-23T05:45:05.775Z,50.50
2018-01-23T05:46:05.762Z,52.90
2018-01-23T05:47:05.753Z,50.00
2018-01-23T05:48:05.742Z,58.40
2018-01-23T05:49:05.728Z,45.30
2018-01-23T05:50:05.716Z,49.10
2018-01-23T05:51:05.705Z,53.10
2018-01-23T05:52:05.699Z,54.30
2018-01-23T05:53:05.688Z,51.20
2018-01-23T05:54:05.679Z,50.70
2018-01-23T05:55:05.664Z,47.10
2018-01-23T05:56:05.659Z,54.50
2018-01-23T05:57:05.642Z,54.30
2018-01-23T05:58:05.636Z,49.30
2018-01-23T05:59:05.622Z,50.20
2018-01-23T06:00:05.644Z,53.50
2018-01-23T06:01:05.601Z,48.20
2018-01-23T06:02:05.591Z,51.40
2018-01-23T06:03:05.580Z,46.30
2018-01-23T06:04:05.581Z,45.60
2018-01-23T06:05:05.557Z,50.30
2018-01-23T06:06:05.549Z,43.40
2018-01-23T06:07:05.538Z,49.90
2018-01-23T06:08:05.524Z,46.30
2018-01-23T06:09:05.516Z,43.70
2018-01-23T06:10:05.515Z,49.40
2018-01-23T06:11:05.493Z,65.00
2018-01-23T06:12:05.488Z,48.70
2018-01-23T06:13:05.482Z,57.30
2018-01-23T06:14:05.464Z,55.10
2018-01-23T06:15:05.484Z,54.80
2018-01-23T06:16:05.472Z,52.70
2018-01-23T06:17:05.434Z,51.70
2018-01-23T06:18:05.452Z,65.60
2018-01-23T06:19:05.416Z,50.60
2018-01-23T06:20:05.402Z,55.20
2018-01-23T06:21:05.393Z,62.20
2018-01-23T06:22:05.382Z,51.10
2018-01-23T06:23:05.365Z,56.90
2018-01-23T06:24:05.354Z,67.60
2018-01-23T06:25:05.348Z,59.40
2018-01-23T06:26:05.339Z,56.50
2018-01-23T06:27:05.325Z,53.40
2018-01-23T06:28:05.369Z,48.80
2018-01-23T06:29:05.303Z,45.90
2018-01-23T06:30:05.295Z,47.60
2018-01-23T06:31:05.280Z,42.10
2018-01-23T06:32:05.272Z,47.20
2018-01-23T06:33:05.263Z,44.90
2018-01-23T06:34:05.246Z,48.40
2018-01-23T06:35:05.238Z,50.40
2018-01-23T06:36:05.229Z,49.20
2018-01-23T06:37:05.219Z,49.40
2018-01-23T06:38:05.211Z,55.20
2018-01-23T06:39:05.196Z,48.10
2018-01-23T06:40:05.195Z,49.90
2018-01-23T06:41:05.178Z,45.90
2018-01-23T06:42:05.165Z,51.60
2018-01-23T06:43:05.154Z,46.00
2018-01-23T06:44:05.146Z,53.10
2018-01-23T06:45:05.132Z,45.30
2018-01-23T06:46:05.124Z,52.50
2018-01-23T06:47:05.111Z,45.30
2018-01-23T06:48:05.100Z,45.20
2018-01-23T06:49:05.090Z,48.80
2018-01-23T06:50:05.088Z,59.20
2018-01-23T06:51:05.072Z,47.00
2018-01-23T06:52:05.060Z,47.30
2018-01-23T06:53:05.050Z,49.30
2018-01-23T06:54:05.046Z,48.90
2018-01-23T06:55:05.030Z,44.10
2018-01-23T06:56:05.045Z,52.20
2018-01-23T06:57:05.023Z,47.10
2018-01-23T06:58:04.994Z,50.20
2018-01-23T06:59:05.044Z,53.00
2018-01-23T07:00:04.975Z,47.30
2018-01-23T07:01:04.970Z,53.70
2018-01-23T07:02:04.980Z,47.40
2018-01-23T07:03:04.945Z,48.20
2018-01-23T07:04:04.932Z,46.00
2018-01-23T07:05:04.927Z,46.90
2018-01-23T07:06:04.910Z,49.10
2018-01-23T07:07:04.901Z,45.50
2018-01-23T07:08:04.896Z,52.40
2018-01-23T07:09:04.882Z,44.90
2018-01-23T07:10:04.870Z,54.40
2018-01-23T07:11:04.859Z,53.30
2018-01-23T07:12:04.848Z,50.20
2018-01-23T07:13:04.854Z,46.80
2018-01-23T07:14:04.829Z,44.70
2018-01-23T07:15:04.820Z,50.90
2018-01-23T07:16:04.807Z,45.80
2018-01-23T07:17:04.793Z,55.40
2018-01-23T07:18:04.837Z,48.40
2018-01-23T07:19:04.773Z,43.70
2018-01-23T07:20:04.777Z,46.10
2018-01-23T07:21:04.755Z,49.40
2018-01-23T07:22:04.746Z,46.40
2018-01-23T07:23:04.732Z,46.40
2018-01-23T07:24:04.736Z,50.30
2018-01-23T07:25:04.718Z,54.10
2018-01-23T07:26:04.704Z,53.70
2018-01-23T07:27:04.693Z,47.30
2018-01-23T07:28:04.680Z,43.00
2018-01-23T07:29:04.673Z,43.60
2018-01-23T07:30:04.667Z,47.30
2018-01-23T07:31:04.644Z,49.90
2018-01-23T07:32:04.641Z,50.70
2018-01-23T07:33:04.629Z,47.90
2018-01-23T07:34:04.618Z,45.00
2018-01-23T07:35:04.608Z,45.20
2018-01-23T07:36:04.597Z,45.20
2018-01-23T07:37:04.587Z,50.00
2018-01-23T07:38:04.573Z,44.90
2018-01-23T07:39:04.572Z,43.80
2018-01-23T07:40:04.551Z,43.10
2018-01-23T07:41:04.544Z,42.10
2018-01-23T07:42:04.536Z,46.40
2018-01-23T07:43:04.519Z,47.20
2018-01-23T07:44:04.513Z,41.00
2018-01-23T07:45:04.499Z,41.00
2018-01-23T07:46:04.490Z,43.90
2018-01-23T07:47:04.484Z,48.70
2018-01-23T07:48:04.471Z,44.00
2018-01-23T07:49:04.461Z,41.20
2018-01-23T07:50:04.449Z,44.50
2018-01-23T07:51:04.435Z,44.20
2018-01-23T07:52:04.431Z,47.90
2018-01-23T07:53:04.420Z,46.30
2018-01-23T07:54:04.422Z,37.60
2018-01-23T07:55:04.420Z,45.50
2018-01-23T07:56:04.387Z,42.10
2018-01-23T07:57:04.375Z,51.20
2018-01-23T07:58:04.367Z,42.30
2018-01-23T07:59:04.350Z,40.50
2018-01-23T08:00:04.345Z,39.40
2018-01-23T08:01:04.387Z,46.10
2018-01-23T08:02:04.324Z,45.20
2018-01-23T08:03:04.312Z,40.80
2018-01-23T08:04:04.298Z,44.10
2018-01-23T08:05:04.291Z,41.10
2018-01-23T08:06:04.299Z,42.70
2018-01-23T08:07:04.267Z,41.50
2018-01-23T08:08:04.261Z,45.10
2018-01-23T08:09:04.251Z,40.80
2018-01-23T08:10:04.239Z,41.10
2018-01-23T08:11:04.228Z,40.90
2018-01-23T08:12:04.218Z,42.00
2018-01-23T08:13:04.209Z,41.10
2018-01-23T08:14:04.198Z,42.70
2018-01-23T08:15:04.193Z,38.70
2018-01-23T08:16:04.177Z,44.70
2018-01-23T08:17:04.167Z,39.70
2018-01-23T08:18:04.155Z,40.00
2018-01-23T08:19:04.142Z,35.70
2018-01-23T08:20:04.136Z,40.50
2018-01-23T08:21:04.126Z,38.60
2018-01-23T08:22:04.113Z,36.70
2018-01-23T08:23:04.107Z,37.10
2018-01-23T08:24:04.095Z,40.90
2018-01-23T08:25:04.084Z,40.70
2018-01-23T08:26:04.076Z,40.60
2018-01-23T08:27:04.072Z,40.20
2018-01-23T08:28:04.052Z,42.30
2018-01-23T08:29:04.048Z,40.00
2018-01-23T08:30:04.033Z,36.00
2018-01-23T08:31:04.017Z,45.70
2018-01-23T08:32:04.008Z,43.60
2018-01-23T08:33:03.997Z,36.50
2018-01-23T08:34:04.001Z,34.60
2018-01-23T08:35:04.008Z,36.70
2018-01-23T08:36:04.002Z,32.90
2018-01-23T08:37:03.976Z,36.90
2018-01-23T08:38:03.949Z,40.40
2018-01-23T08:39:03.940Z,35.90
2018-01-23T08:40:03.930Z,38.50
2018-01-23T08:41:03.926Z,37.40
2018-01-23T08:42:03.909Z,40.50
2018-01-23T08:43:03.945Z,39.20
2018-01-23T08:44:03.894Z,37.50
2018-01-23T08:45:03.894Z,43.00
2018-01-23T08:46:03.879Z,39.40
2018-01-23T08:47:03.860Z,37.20
2018-01-23T08:48:03.872Z,45.20
2018-01-23T08:49:03.835Z,35.60
2018-01-23T08:50:03.825Z,32.40
2018-01-23T08:51:03.824Z,38.40
2018-01-23T08:52:03.807Z,32.50
2018-01-23T08:53:03.793Z,35.00
2018-01-23T08:54:03.782Z,35.00
2018-01-23T08:55:03.772Z,35.80
2018-01-23T08:56:03.770Z,39.20
2018-01-23T08:57:03.765Z,36.90
2018-01-23T08:58:03.739Z,34.90
2018-01-23T08:59:03.733Z,35.80
2018-01-23T09:00:03.719Z,33.50
2018-01-23T09:01:03.735Z,33.70
2018-01-23T09:02:03.703Z,30.70
2018-01-23T09:03:03.701Z,35.50
2018-01-23T09:04:03.681Z,30.80
2018-01-23T09:05:03.802Z,34.30
2018-01-23T09:06:03.670Z,33.70
2018-01-23T09:07:03.651Z,35.20
2018-01-23T09:08:03.654Z,32.60
2018-01-23T09:09:03.641Z,33.10
2018-01-23T09:10:03.619Z,34.10
2018-01-23T09:11:03.610Z,35.00
2018-01-23T09:12:03.604Z,34.40
2018-01-23T09:13:03.592Z,31.50
2018-01-23T09:14:03.584Z,35.70
2018-01-23T09:15:03.566Z,32.50
2018-01-23T09:16:03.559Z,30.80
2018-01-23T09:17:03.551Z,34.00
2018-01-23T09:18:03.537Z,32.20
2018-01-23T09:19:03.529Z,31.00
2018-01-23T09:20:03.530Z,35.30
2018-01-23T09:21:03.514Z,31.90
2018-01-23T09:22:03.497Z,39.80
2018-01-23T09:23:03.494Z,35.30
2018-01-23T09:24:03.483Z,29.70
2018-01-23T09:25:03.485Z,32.20
2018-01-23T09:26:03.460Z,31.80
2018-01-23T09:27:03.450Z,27.60
2018-01-23T09:28:03.438Z,33.50
2018-01-23T09:29:03.428Z,27.60
2018-01-23T09:30:03.479Z,32.00
2018-01-23T09:31:03.408Z,29.10
2018-01-23T09:32:03.400Z,35.80
2018-01-23T09:33:03.394Z,30.80
2018-01-23T09:34:03.384Z,29.80
2018-01-23T09:35:03.371Z,28.50
2018-01-23T09:36:03.372Z,29.10
2018-01-23T09:37:03.350Z,28.20
2018-01-23T09:38:03.345Z,31.00
2018-01-23T09:39:03.329Z,32.50
2018-01-23T09:40:03.319Z,27.30
2018-01-23T09:41:03.307Z,30.10
2018-01-23T09:42:03.298Z,28.20
2018-01-23T09:43:03.288Z,30.70
2018-01-23T09:44:03.283Z,32.60
2018-01-23T09:45:03.316Z,27.40
2018-01-23T09:46:03.259Z,28.00
2018-01-23T09:47:03.245Z,25.00
2018-01-23T09:48:03.239Z,26.20
2018-01-23T09:49:03.240Z,27.30
2018-01-23T09:50:03.215Z,28.50
2018-01-23T09:51:03.209Z,29.60
2018-01-23T09:52:03.199Z,26.50
2018-01-23T09:53:03.195Z,32.40
2018-01-23T09:54:03.182Z,32.40
2018-01-23T09:55:03.174Z,28.70
2018-01-23T09:56:03.158Z,23.80
2018-01-23T09:57:03.146Z,28.50
2018-01-23T09:58:03.137Z,29.80
2018-01-23T09:59:03.125Z,28.30
2018-01-23T10:00:03.119Z,26.30
2018-01-23T10:01:03.106Z,27.00
2018-01-23T10:02:03.104Z,26.70
2018-01-23T10:03:03.084Z,26.10
2018-01-23T10:04:03.078Z,30.50
2018-01-23T10:05:03.067Z,25.20
2018-01-23T10:06:03.060Z,25.40
2018-01-23T10:07:03.047Z,23.50
2018-01-23T10:08:03.038Z,26.80
2018-01-23T10:09:03.031Z,23.80
2018-01-23T10:10:03.030Z,25.90
2018-01-23T10:11:03.008Z,29.20
2018-01-23T10:12:02.999Z,29.20
2018-01-23T10:13:03.041Z,27.50
2018-01-23T10:14:02.982Z,26.40
2018-01-23T10:15:02.970Z,25.10
2018-01-23T10:16:02.963Z,26.70
2018-01-23T10:17:02.947Z,30.10
2018-01-23T10:18:02.939Z,26.50
2018-01-23T10:19:02.929Z,26.90
2018-01-23T10:20:02.923Z,28.40
2018-01-23T10:21:02.908Z,23.90
2018-01-23T10:22:02.921Z,26.20
2018-01-23T10:23:02.920Z,25.90
2018-01-23T10:24:02.876Z,29.00
2018-01-23T10:25:02.871Z,24.60
2018-01-23T10:26:02.859Z,22.40
2018-01-23T10:27:02.844Z,25.20
2018-01-23T10:28:02.841Z,29.60
2018-01-23T10:29:02.834Z,24.20
2018-01-23T10:30:02.816Z,24.90
2018-01-23T10:31:02.810Z,25.40
2018-01-23T10:32:02.801Z,23.60
2018-01-23T10:33:02.793Z,25.70
2018-01-23T10:34:02.787Z,25.60
2018-01-23T10:35:02.781Z,27.50
2018-01-23T10:36:02.762Z,24.60
2018-01-23T10:37:02.753Z,27.60
2018-01-23T10:38:02.740Z,26.60
2018-01-23T10:39:02.742Z,23.00
2018-01-23T10:40:02.749Z,23.70
2018-01-23T10:41:02.713Z,28.90
2018-01-23T10:42:02.706Z,21.50
2018-01-23T10:43:02.692Z,24.90
2018-01-23T10:44:02.686Z,24.90
2018-01-23T10:45:02.675Z,29.20
2018-01-23T10:46:02.664Z,26.40
2018-01-23T10:47:02.655Z,19.80
2018-01-23T10:48:02.646Z,26.70
2018-01-23T10:49:02.638Z,21.20
2018-01-23T10:50:02.631Z,23.60
2018-01-23T10:51:02.663Z,27.60
2018-01-23T10:52:02.603Z,21.40
2018-01-23T10:53:02.597Z,22.90
2018-01-23T10:54:02.593Z,25.60
2018-01-23T10:55:02.575Z,22.40
2018-01-23T10:56:02.570Z,21.80
2018-01-23T10:57:02.561Z,27.80
2018-01-23T10:58:02.545Z,23.10
2018-01-23T10:59:02.536Z,25.00
2018-01-23T11:00:02.537Z,25.50
2018-01-23T11:01:02.517Z,22.50
2018-01-23T11:02:02.515Z,20.70
2018-01-23T11:03:02.498Z,27.40
2018-01-23T11:04:02.497Z,27.30
2018-01-23T11:05:02.483Z,22.80
2018-01-23T11:06:02.470Z,18.50
2018-01-23T11:07:02.471Z,22.80
2018-01-23T11:08:02.455Z,23.60
2018-01-23T11:09:02.444Z,24.90
2018-01-23T11:10:02.436Z,30.50
2018-01-23T11:11:02.421Z,23.40
2018-01-23T11:12:02.416Z,23.80
2018-01-23T11:13:02.404Z,23.50
2018-01-23T11:14:02.397Z,27.30
2018-01-23T11:15:02.388Z,23.60
2018-01-23T11:16:02.377Z,21.90
2018-01-23T11:17:02.369Z,20.70
2018-01-23T11:18:02.359Z,21.40
2018-01-23T11:19:02.376Z,20.00
2018-01-23T11:20:02.344Z,22.30
2018-01-23T11:21:02.336Z,25.00
2018-01-23T11:22:02.319Z,21.20
2018-01-23T11:23:02.308Z,24.50
2018-01-23T11:24:02.302Z,20.00
2018-01-23T11:25:02.294Z,23.50
2018-01-23T11:26:02.290Z,20.90
2018-01-23T11:27:02.276Z,23.60
2018-01-23T11:28:02.268Z,24.40
2018-01-23T11:29:02.257Z,24.00
2018-01-23T11:30:02.247Z,20.30
2018-01-23T11:31:02.242Z,27.40
2018-01-23T11:32:02.229Z,20.20
2018-01-23T11:33:02.213Z,21.10
2018-01-23T11:34:02.205Z,25.30
2018-01-23T11:35:02.197Z,17.60
2018-01-23T11:36:02.191Z,19.80
2018-01-23T11:37:02.181Z,21.80
2018-01-23T11:38:02.171Z,23.00
2018-01-23T11:39:02.162Z,19.60
2018-01-23T11:40:02.151Z,20.50
2018-01-23T11:41:02.139Z,20.80
2018-01-23T11:42:02.134Z,18.50
2018-01-23T11:43:02.126Z,21.50
2018-01-23T11:44:02.114Z,22.10
2018-01-23T11:45:02.111Z,21.60
2018-01-23T11:46:02.097Z,21.40
2018-01-23T11:47:02.087Z,21.20
2018-01-23T11:48:02.092Z,21.10
2018-01-23T11:49:02.071Z,25.70
2018-01-23T11:50:02.062Z,19.50
2018-01-23T11:51:02.053Z,20.80
2018-01-23T11:52:02.044Z,20.60
2018-01-23T11:53:02.033Z,16.00
2018-01-23T11:54:02.021Z,17.80
2018-01-23T11:55:02.022Z,18.60
2018-01-23T11:56:02.010Z,21.90
2018-01-23T11:57:01.996Z,18.70
2018-01-23T11:58:01.989Z,17.50
2018-01-23T11:59:01.978Z,17.50
2018-01-23T12:00:01.970Z,19.00
2018-01-23T12:01:01.957Z,17.50
2018-01-23T12:02:01.953Z,14.00
2018-01-23T12:03:01.945Z,17.60
2018-01-23T12:04:01.937Z,18.20
2018-01-23T12:05:01.929Z,17.50
2018-01-23T12:06:01.921Z,15.30
2018-01-23T12:07:01.945Z,18.30
2018-01-23T12:08:01.898Z,19.30
2018-01-23T12:09:01.893Z,15.50
2018-01-23T12:10:01.888Z,18.70
2018-01-23T12:11:01.879Z,17.20
2018-01-23T12:12:01.867Z,16.60
2018-01-23T12:13:01.863Z,14.80
2018-01-23T12:14:01.859Z,17.20
2018-01-23T12:15:01.850Z,16.00
2018-01-23T12:16:01.843Z,15.80
2018-01-23T12:17:01.829Z,17.20
2018-01-23T12:18:01.821Z,18.00
2018-01-23T12:19:01.812Z,15.10
2018-01-23T12:20:01.804Z,17.30
2018-01-23T12:21:01.796Z,15.50
2018-01-23T12:22:01.784Z,14.80
2018-01-23T12:23:01.779Z,13.20
2018-01-23T12:24:01.772Z,15.00
2018-01-23T12:25:01.766Z,14.60
2018-01-23T12:26:01.756Z,12.10
2018-01-23T12:27:01.747Z,13.80
2018-01-23T12:28:01.740Z,13.40
2018-01-23T12:29:01.726Z,11.70
2018-01-23T12:30:01.723Z,13.20
2018-01-23T12:31:01.712Z,11.90
2018-01-23T12:32:01.704Z,14.10
2018-01-23T12:33:01.694Z,13.10
2018-01-23T12:34:01.688Z,11.90
2018-01-23T12:35:01.676Z,10.00
2018-01-23T12:36:01.675Z,10.20
2018-01-23T12:37:01.662Z,19.70
2018-01-23T12:38:01.654Z,10.80
2018-01-23T12:39:01.645Z,10.50
2018-01-23T12:40:01.636Z,12.80
2018-01-23T12:41:01.626Z,13.30
2018-01-23T12:42:01.617Z,10.90
2018-01-23T12:43:01.608Z,12.00
2018-01-23T12:44:01.603Z,14.00
2018-01-23T12:45:01.592Z,13.00
2018-01-23T12:46:01.587Z,15.90
2018-01-23T12:47:01.575Z,14.10
2018-01-23T12:48:01.575Z,13.50
2018-01-23T12:49:01.565Z,12.80
2018-01-23T12:50:01.552Z,10.40
2018-01-23T12:51:01.544Z,11.70
2018-01-23T12:52:01.535Z,12.10